Royse City, Texas
Current Conditions -  °F | °C
As of 3:35 PM on Wednesday 17 Dec 2014 (Local Time) from KF46 Reporting Station
Overcast Overcast  
Wind Chill: 37°   Ceiling: 3200
Heat Index: 43°   Visibility: 10mi
Dew Point: 38°   Wind: 10mph
Humidity: 83%   Direction: 90°E
Pressure: 30.07"   Gusts: 20mph
Location:  32.98°N, 96.33°W
Report Text: KF46 172135Z AUTO 09009G17KT 10SM OVC032 06/04 A3007 RMK AO2 T00620035
Loading
Personal Weather Stations






























Interactive Weather Map New forecast layout! Learn more

10-Day Weather Forecast

Advertisements
Track Severe Weather on mobile